Strona główna
METAR-TAF:

METAR-TAF

Lotnisko :

Port lotniczy Taszkent

Taszkent, Uzbekistan

Szerokość geograficzna: 41-16N, Długość geograficzna: 069-16E, wysokość: 489 m

Aktualna obserwacja pogody

Raport powstał 31 minut temu, godzina 22:30 UTC
Wiatr 6 kt od wschodnio-północny wschód
Temperatura 22°C
Wilgotność 43%
Ciśnienie 1008 hPa
Widzialność 10 km lub więcej
Brak chmur poniżej 1500 m i brak chmur cumulonimbus

METAR: UTTT 302230Z 07006KT CAVOK 22/09 Q1008 R08R/CLRD70 NOSIG

czas: 04:01 (23:01 UTC)

Prognoza

Raport powstał 6 godziny i 1 minut temu, godzina 17:00 UTC
Prognoza ważna od 30 godzina 18 UTC do 31 godzina 18 UTC
Wiatr 10 kt od północny wschód
Widzialność: 7000 m

TAF: UTTT 301700Z 3018/3118 05010KT 7000 NSC TX36/3110Z

Obserwacja i prognoza pogody dla ponad 4000 lotnisk (raport METAR i TAF).

Dostępne stacje oznaczono żółtymi i czerwonymi punktami na mapie.

Najedź kursorem aby zobaczyć nazwę stacji.

Kliknij aby zobaczyć obserwacje i prognozy pogody.

Aby zmienić mapę: kliknij na zielony przycisk z czarnym krzyżykiem, aby powiększyć; na zielony przycisk z myślnikiem, aby pomniejszyć; na zielone strzałki, aby przejść do map sąsiednich.


METAR-TAF: